createdAt,value
2018-08-18T00:00:31.844Z,99126.45
2018-08-18T00:03:01.373Z,99128.36
2018-08-18T00:05:30.845Z,99125.50
2018-08-18T00:08:00.697Z,99136.08
2018-08-18T00:10:30.154Z,99133.81
2018-08-18T00:13:00.032Z,99133.46
2018-08-18T00:15:29.873Z,99141.54
2018-08-18T00:17:59.304Z,99143.61
2018-08-18T00:20:29.145Z,99145.48
2018-08-18T00:22:58.791Z,99147.22
2018-08-18T00:25:28.606Z,99145.38
2018-08-18T00:28:04.231Z,99144.02
2018-08-18T00:30:33.660Z,99145.25
2018-08-18T00:33:03.108Z,99152.57
2018-08-18T00:35:32.539Z,99149.90
2018-08-18T00:38:02.808Z,99145.95
2018-08-18T00:40:32.269Z,99140.59
2018-08-18T00:43:01.630Z,99141.48
2018-08-18T00:45:31.077Z,99147.54
2018-08-18T00:48:00.636Z,99145.12
2018-08-18T00:50:43.863Z,99150.47
2018-08-18T00:53:14.974Z,99153.97
2018-08-18T00:55:47.365Z,99157.33
2018-08-18T00:58:29.754Z,99163.56
2018-08-18T01:01:03.592Z,99163.92
2018-08-18T01:03:40.328Z,99164.17
2018-08-18T01:06:20.937Z,99165.92
2018-08-18T01:08:54.123Z,99161.23
2018-08-18T01:11:24.026Z,99166.62
2018-08-18T01:13:55.068Z,99163.56
2018-08-18T01:16:24.716Z,99166.86
2018-08-18T01:18:55.612Z,99164.34
2018-08-18T01:21:25.970Z,99163.16
2018-08-18T01:23:57.341Z,99167.05
2018-08-18T01:26:26.920Z,99169.72
2018-08-18T01:29:06.313Z,99165.09
2018-08-18T01:31:35.830Z,99171.05
2018-08-18T01:34:05.232Z,99172.13
2018-08-18T01:36:34.808Z,99166.62
2018-08-18T01:39:05.781Z,99170.16
2018-08-18T01:41:35.160Z,99170.08
2018-08-18T01:44:14.432Z,99172.39
2018-08-18T01:46:46.203Z,99169.01
2018-08-18T01:49:35.310Z,99175.53
2018-08-18T01:52:12.808Z,99174.67
2018-08-18T01:54:42.736Z,99177.70
2018-08-18T01:57:13.740Z,99172.13
2018-08-18T01:59:44.542Z,99173.22
2018-08-18T02:02:18.751Z,99168.50
2018-08-18T02:04:48.588Z,99173.25
2018-08-18T02:07:33.265Z,99182.21
2018-08-18T02:10:03.043Z,99172.63
2018-08-18T02:12:39.957Z,99177.02
2018-08-18T02:15:10.411Z,99179.59
2018-08-18T02:17:39.868Z,99170.58
2018-08-18T02:20:10.297Z,99179.57
2018-08-18T02:22:39.801Z,99182.23
2018-08-18T02:25:14.980Z,99181.66
2018-08-18T02:27:44.389Z,99186.52
2018-08-18T02:30:18.485Z,99193.67
2018-08-18T02:32:47.896Z,99186.74
2018-08-18T02:35:17.495Z,99189.53
2018-08-18T02:37:46.905Z,99189.20
2018-08-18T02:40:17.461Z,99187.98
2018-08-18T02:42:46.941Z,99191.00
2018-08-18T02:45:18.277Z,99190.63
2018-08-18T02:47:47.729Z,99192.70
2018-08-18T02:50:17.217Z,99200.34
2018-08-18T02:52:46.951Z,99196.20
2018-08-18T02:55:17.018Z,99093.95
2018-08-18T02:57:46.426Z,99192.81
2018-08-18T03:00:24.421Z,99198.89
2018-08-18T03:02:54.287Z,99203.38
2018-08-18T03:05:23.780Z,99207.61
2018-08-18T03:07:53.760Z,99211.38
2018-08-18T03:10:26.615Z,99214.42
2018-08-18T03:12:58.137Z,99219.86
2018-08-18T03:16:03.115Z,99219.75
2018-08-18T03:18:37.468Z,99223.74
2018-08-18T03:21:06.939Z,99226.67
2018-08-18T03:23:36.323Z,99228.14
2018-08-18T03:26:07.173Z,99236.00
2018-08-18T03:28:49.070Z,99234.80
2018-08-18T03:31:18.506Z,99237.58
2018-08-18T03:33:48.184Z,99247.17
2018-08-18T03:36:27.906Z,99246.64
2018-08-18T03:38:57.820Z,99241.42
2018-08-18T03:41:28.609Z,99245.55
2018-08-18T03:43:58.396Z,99246.53
2018-08-18T03:46:28.545Z,99244.69
2018-08-18T03:48:57.932Z,99247.84
2018-08-18T03:51:57.841Z,99245.40
2018-08-18T03:54:27.268Z,99253.77
2018-08-18T03:56:56.719Z,99071.87
2018-08-18T03:59:26.441Z,99262.14
2018-08-18T04:02:00.158Z,99261.04
2018-08-18T04:04:37.008Z,99259.55
2018-08-18T04:07:08.767Z,99263.83
2018-08-18T04:09:39.291Z,99265.28
2018-08-18T04:12:10.160Z,99266.97
2018-08-18T04:14:40.800Z,99264.89
2018-08-18T04:17:21.397Z,99269.87
2018-08-18T04:19:50.932Z,99273.30
2018-08-18T04:22:20.825Z,99273.78
2018-08-18T04:24:50.235Z,99282.06
2018-08-18T04:27:52.953Z,99277.67
2018-08-18T04:30:22.697Z,99278.41
2018-08-18T04:32:56.621Z,99284.74
2018-08-18T04:35:27.280Z,99287.17
2018-08-18T04:37:58.249Z,99289.58
2018-08-18T04:40:27.788Z,99294.09
2018-08-18T04:42:59.276Z,99291.42
2018-08-18T04:45:29.354Z,99298.70
2018-08-18T04:47:58.949Z,99309.51
2018-08-18T04:50:28.918Z,99309.75
2018-08-18T04:52:59.120Z,99311.41
2018-08-18T04:55:28.611Z,99306.87
2018-08-18T04:57:58.346Z,99300.82
2018-08-18T05:00:28.220Z,99307.58
2018-08-18T05:02:59.699Z,99310.95
2018-08-18T05:05:30.508Z,99311.78
2018-08-18T05:08:01.234Z,99311.59
2018-08-18T05:10:31.029Z,99321.70
2018-08-18T05:13:00.733Z,99321.70
2018-08-18T05:15:30.444Z,99325.27
2018-08-18T05:17:59.881Z,99323.94
2018-08-18T05:20:29.296Z,99325.23
2018-08-18T05:23:14.963Z,99328.81
2018-08-18T05:25:44.368Z,99322.50
2018-08-18T05:28:13.812Z,99323.27
2018-08-18T05:30:43.486Z,99328.39
2018-08-18T05:33:12.920Z,99323.03
2018-08-18T05:35:42.657Z,99326.64
2018-08-18T05:38:12.065Z,99334.24
2018-08-18T05:40:41.468Z,99333.96
2018-08-18T05:43:10.945Z,99333.94
2018-08-18T05:45:40.961Z,99333.64
2018-08-18T05:48:10.384Z,99340.39
2018-08-18T05:50:39.823Z,99341.22
2018-08-18T05:53:22.876Z,99344.36
2018-08-18T05:55:52.294Z,99345.77
2018-08-18T05:58:22.884Z,99348.90
2018-08-18T06:01:27.229Z,99355.73
2018-08-18T06:04:03.709Z,99359.08
2018-08-18T06:06:33.714Z,99360.36
2018-08-18T06:09:03.353Z,99351.36
2018-08-18T06:11:32.852Z,99362.75
2018-08-18T06:14:02.779Z,99355.86
2018-08-18T06:16:32.038Z,99356.73
2018-08-18T06:19:01.497Z,99362.54
2018-08-18T06:21:31.511Z,99359.53
2018-08-18T06:24:00.911Z,99365.67
2018-08-18T06:26:32.363Z,99365.59
2018-08-18T06:29:02.284Z,99375.41
2018-08-18T06:31:31.763Z,99363.99
2018-08-18T06:34:01.166Z,99364.51
2018-08-18T06:36:30.556Z,99372.30
2018-08-18T06:38:59.969Z,99365.92
2018-08-18T06:41:29.388Z,99368.09
2018-08-18T06:43:59.790Z,99371.28
2018-08-18T06:46:30.196Z,99364.52
2018-08-18T06:48:59.587Z,99363.94
2018-08-18T06:51:29.234Z,99367.70
2018-08-18T06:53:58.691Z,99367.05
2018-08-18T06:56:28.113Z,99380.34
2018-08-18T06:59:01.861Z,99376.35
2018-08-18T07:01:31.837Z,99371.62
2018-08-18T07:04:02.267Z,99367.75
2018-08-18T07:06:32.076Z,99374.88
2018-08-18T07:09:01.622Z,99377.66
2018-08-18T07:11:31.189Z,99382.30
2018-08-18T07:14:01.013Z,99386.72
2018-08-18T07:16:30.474Z,99381.56
2018-08-18T07:18:59.888Z,99391.01
2018-08-18T07:21:29.278Z,99388.43
2018-08-18T07:24:00.553Z,99388.83
2018-08-18T07:26:29.990Z,99391.84
2018-08-18T07:28:59.731Z,99388.24
2018-08-18T07:31:29.329Z,99390.25
2018-08-18T07:33:58.805Z,99383.39
2018-08-18T07:36:29.875Z,99393.17
2018-08-18T07:38:59.243Z,99371.76
2018-08-18T07:41:28.863Z,99400.09
2018-08-18T07:43:58.420Z,99400.65
2018-08-18T07:46:28.014Z,99398.27
2018-08-18T07:48:57.645Z,99397.02
2018-08-18T07:51:27.070Z,99398.52
2018-08-18T07:53:56.588Z,99400.01
2018-08-18T07:56:25.973Z,99405.65
2018-08-18T07:58:55.411Z,99400.56
2018-08-18T08:01:24.773Z,99399.52
2018-08-18T08:03:54.273Z,99406.91
2018-08-18T08:06:23.656Z,99408.52
2018-08-18T08:08:53.095Z,99415.96
2018-08-18T08:11:23.353Z,99415.83
2018-08-18T08:13:53.369Z,99419.83
2018-08-18T08:16:26.159Z,99421.52
2018-08-18T08:18:55.544Z,99421.53
2018-08-18T08:21:25.011Z,99419.08
2018-08-18T08:23:55.032Z,99425.84
2018-08-18T08:26:24.459Z,99415.25
2018-08-18T08:28:53.944Z,99418.80
2018-08-18T08:31:23.605Z,99415.91
2018-08-18T08:33:53.281Z,99416.28
2018-08-18T08:36:22.660Z,99413.89
2018-08-18T08:38:57.447Z,99412.19
2018-08-18T08:41:28.940Z,99408.00
2018-08-18T08:43:58.416Z,99406.64
2018-08-18T08:46:27.973Z,99403.80
2018-08-18T08:48:59.245Z,99410.75
2018-08-18T08:51:29.913Z,99403.00
2018-08-18T08:54:00.419Z,99399.31
2018-08-18T08:56:34.229Z,99404.94
2018-08-18T08:59:04.369Z,99403.75
2018-08-18T09:01:34.034Z,99407.16
2018-08-18T09:04:04.187Z,99404.94
2018-08-18T09:06:35.390Z,99401.05
2018-08-18T09:09:07.489Z,99408.48
2018-08-18T09:11:36.924Z,99401.41
2018-08-18T09:14:08.173Z,99393.11
2018-08-18T09:16:37.575Z,99394.82
2018-08-18T09:19:06.979Z,99395.16
2018-08-18T09:21:42.284Z,99389.89
2018-08-18T09:24:12.162Z,99388.55
2018-08-18T09:26:46.825Z,99390.44
2018-08-18T09:29:19.138Z,99388.55
2018-08-18T09:31:49.842Z,99388.68
2018-08-18T09:34:19.285Z,99381.75
2018-08-18T09:36:49.156Z,99388.02
2018-08-18T09:39:25.489Z,99385.80
2018-08-18T09:41:54.960Z,99383.09
2018-08-18T09:44:31.448Z,99381.86
2018-08-18T09:47:00.912Z,99382.68
2018-08-18T09:49:31.332Z,99386.02
2018-08-18T09:52:01.870Z,99384.94
2018-08-18T09:54:31.585Z,99388.59
2018-08-18T09:57:01.123Z,99384.11
2018-08-18T09:59:30.784Z,99380.75
2018-08-18T10:02:02.845Z,99384.41
2018-08-18T10:04:32.602Z,99380.20
2018-08-18T10:07:02.121Z,99386.46
2018-08-18T10:09:31.536Z,99391.56
2018-08-18T10:12:01.092Z,99166.90
2018-08-18T10:14:30.522Z,99374.27
2018-08-18T10:17:00.304Z,99381.13
2018-08-18T10:19:32.060Z,99377.92
2018-08-18T10:22:02.120Z,99382.60
2018-08-18T10:24:31.887Z,99380.71
2018-08-18T10:27:07.024Z,99378.52
2018-08-18T10:29:37.112Z,99389.06
2018-08-18T10:32:06.924Z,99382.03
2018-08-18T10:34:36.311Z,99386.19
2018-08-18T10:37:06.919Z,99391.05
2018-08-18T10:39:37.638Z,99387.04
2018-08-18T10:42:27.156Z,99386.23
2018-08-18T10:45:01.436Z,99390.14
2018-08-18T10:47:31.810Z,99385.54
2018-08-18T10:50:12.356Z,99387.36
2018-08-18T10:52:59.267Z,99387.62
2018-08-18T10:55:28.870Z,99387.70
2018-08-18T10:58:01.314Z,99388.66
2018-08-18T11:00:32.477Z,99380.81
2018-08-18T11:03:03.286Z,99378.67
2018-08-18T11:05:32.792Z,99376.01
2018-08-18T11:08:06.897Z,99372.61
2018-08-18T11:10:38.540Z,99384.56
2018-08-18T11:13:08.044Z,99381.88
2018-08-18T11:15:37.851Z,99382.36
2018-08-18T11:18:07.357Z,99373.42
2018-08-18T11:20:36.762Z,99367.70
2018-08-18T11:23:10.080Z,99377.11
2018-08-18T11:25:45.934Z,99370.94
2018-08-18T11:28:16.706Z,99373.36
2018-08-18T11:30:46.396Z,99376.00
2018-08-18T11:33:46.462Z,99371.63
2018-08-18T11:36:15.879Z,99375.83
2018-08-18T11:38:45.828Z,99372.23
2018-08-18T11:41:15.225Z,99368.46
2018-08-18T11:43:47.342Z,99358.63
2018-08-18T11:46:16.951Z,99367.03
2018-08-18T11:48:47.746Z,99364.08
2018-08-18T11:51:17.117Z,99363.14
2018-08-18T11:53:59.523Z,99354.94
2018-08-18T11:56:28.947Z,99355.81
2018-08-18T11:59:06.698Z,99355.58
2018-08-18T12:01:37.774Z,99353.94
2018-08-18T12:04:07.567Z,99349.83
2018-08-18T12:06:42.671Z,99239.66
2018-08-18T12:09:12.165Z,99348.73
2018-08-18T12:11:41.961Z,99349.38
2018-08-18T12:14:11.400Z,99348.34
2018-08-18T12:16:40.811Z,99349.31
2018-08-18T12:19:10.174Z,99346.02
2018-08-18T12:21:46.580Z,99350.54
2018-08-18T12:24:17.684Z,99344.27
2018-08-18T12:27:19.679Z,99348.14
2018-08-18T12:29:49.181Z,99347.02
2018-08-18T12:32:23.871Z,99342.24
2018-08-18T12:34:53.370Z,99335.72
2018-08-18T12:37:27.525Z,99162.84
2018-08-18T12:39:58.436Z,99336.91
2018-08-18T12:42:28.989Z,99337.22
2018-08-18T12:44:58.419Z,99329.59
2018-08-18T12:47:28.521Z,99329.36
2018-08-18T12:49:58.027Z,99320.44
2018-08-18T12:52:27.950Z,99315.77
2018-08-18T12:54:57.708Z,99322.50
2018-08-18T12:57:39.814Z,99319.58
2018-08-18T13:00:10.008Z,99323.22
2018-08-18T13:02:44.268Z,99314.52
2018-08-18T13:05:14.309Z,99315.63
2018-08-18T13:07:44.938Z,99319.41
2018-08-18T13:10:18.148Z,99312.91
2018-08-18T13:12:47.637Z,99299.00
2018-08-18T13:15:17.516Z,99303.66
2018-08-18T13:17:46.893Z,99296.52
2018-08-18T13:20:19.409Z,99290.31
2018-08-18T13:22:49.262Z,99287.59
2018-08-18T13:25:18.773Z,99281.44
2018-08-18T13:27:55.750Z,99283.77
2018-08-18T13:30:26.776Z,99280.81
2018-08-18T13:32:58.192Z,99281.18
2018-08-18T13:35:27.567Z,99271.48
2018-08-18T13:37:57.054Z,99283.05
2018-08-18T13:40:28.069Z,99267.55
2018-08-18T13:42:57.701Z,99271.65
2018-08-18T13:45:45.378Z,99274.61
2018-08-18T13:48:14.829Z,99270.37
2018-08-18T13:50:44.453Z,99269.30
2018-08-18T13:53:14.785Z,98807.44
2018-08-18T13:55:44.389Z,99270.48
2018-08-18T13:58:13.794Z,99261.87
2018-08-18T14:00:43.190Z,99258.16
2018-08-18T14:03:26.631Z,99273.16
2018-08-18T14:05:56.557Z,99266.35
2018-08-18T14:08:26.272Z,99265.22
2018-08-18T14:10:55.759Z,99271.73
2018-08-18T14:13:25.993Z,99272.75
2018-08-18T14:15:58.610Z,99271.16
2018-08-18T14:18:27.960Z,99272.41
2018-08-18T14:21:01.598Z,99274.25
2018-08-18T14:23:31.447Z,99266.14
2018-08-18T14:26:00.901Z,99259.69
2018-08-18T14:28:30.397Z,99262.20
2018-08-18T14:31:00.367Z,99258.58
2018-08-18T14:33:29.766Z,99264.41
2018-08-18T14:36:05.511Z,99266.81
2018-08-18T14:38:34.906Z,99267.13
2018-08-18T14:41:04.401Z,99271.39
2018-08-18T14:43:36.832Z,99267.88
2018-08-18T14:46:14.259Z,99265.14
2018-08-18T14:48:43.840Z,99256.98
2018-08-18T14:51:13.201Z,99257.92
2018-08-18T14:53:43.416Z,99247.45
2018-08-18T14:56:12.789Z,99257.49
2018-08-18T14:58:44.270Z,99252.03
2018-08-18T15:01:14.885Z,99251.54
2018-08-18T15:03:44.316Z,99251.06
2018-08-18T15:06:13.795Z,99246.02
2018-08-18T15:08:43.247Z,99243.72
2018-08-18T15:11:12.904Z,99248.69
2018-08-18T15:13:42.302Z,99245.30
2018-08-18T15:16:12.294Z,99241.06
2018-08-18T15:18:43.021Z,99239.39
2018-08-18T15:21:12.427Z,99217.02
2018-08-18T15:23:42.009Z,99232.09
2018-08-18T15:26:11.674Z,99228.97
2018-08-18T15:28:41.037Z,99231.58
2018-08-18T15:31:10.436Z,99232.55
2018-08-18T15:33:39.846Z,99201.98
2018-08-18T15:36:21.177Z,99220.14
2018-08-18T15:38:50.663Z,99223.34
2018-08-18T15:41:20.163Z,99222.40
2018-08-18T15:43:49.584Z,99218.70
2018-08-18T15:46:19.660Z,99215.98
2018-08-18T15:48:50.267Z,99211.28
2018-08-18T15:51:20.434Z,99209.56
2018-08-18T15:53:55.765Z,99210.73
2018-08-18T15:56:26.176Z,99211.78
2018-08-18T15:58:59.255Z,99214.63
2018-08-18T16:01:29.873Z,99221.70
2018-08-18T16:04:01.322Z,99229.64
2018-08-18T16:06:30.763Z,99224.08
2018-08-18T16:09:00.823Z,99226.36
2018-08-18T16:11:30.219Z,99225.11
2018-08-18T16:14:00.972Z,99215.90
2018-08-18T16:16:30.414Z,99218.34
2018-08-18T16:19:05.818Z,99215.30
2018-08-18T16:21:35.323Z,99217.75
2018-08-18T16:24:04.764Z,99121.39
2018-08-18T16:26:34.909Z,99216.16
2018-08-18T16:29:05.184Z,99216.27
2018-08-18T16:31:36.035Z,99213.43
2018-08-18T16:34:05.494Z,99211.34
2018-08-18T16:36:40.792Z,99207.33
2018-08-18T16:39:13.339Z,99212.14
2018-08-18T16:41:44.069Z,99208.67
2018-08-18T16:44:17.883Z,99211.09
2018-08-18T16:46:48.482Z,99215.18
2018-08-18T16:49:17.880Z,99213.58
2018-08-18T16:51:53.941Z,99218.02
2018-08-18T16:54:28.220Z,99217.52
2018-08-18T16:56:58.309Z,99217.34
2018-08-18T16:59:29.509Z,99227.43
2018-08-18T17:01:58.927Z,99223.83
2018-08-18T17:04:31.080Z,99228.39
2018-08-18T17:07:01.601Z,99232.16
2018-08-18T17:09:40.013Z,99237.59
2018-08-18T17:12:18.806Z,99239.96
2018-08-18T17:14:48.616Z,99242.02
2018-08-18T17:17:18.088Z,99244.11
2018-08-18T17:19:47.569Z,99250.05
2018-08-18T17:22:17.542Z,99242.94
2018-08-18T17:24:46.937Z,99244.11
2018-08-18T17:27:17.268Z,99240.53
2018-08-18T17:29:52.550Z,99248.43
2018-08-18T17:32:22.963Z,99250.89
2018-08-18T17:34:53.055Z,99249.59
2018-08-18T17:37:22.669Z,99251.36
2018-08-18T17:39:52.102Z,99256.73
2018-08-18T17:42:21.977Z,99271.73
2018-08-18T17:44:52.301Z,99267.58
2018-08-18T17:47:21.746Z,99270.63
2018-08-18T17:49:57.313Z,99269.86
2018-08-18T17:52:28.276Z,99278.88
2018-08-18T17:55:14.381Z,99282.88
2018-08-18T17:57:43.902Z,99279.94
2018-08-18T18:00:17.941Z,99281.93
2018-08-18T18:02:53.365Z,99286.23
2018-08-18T18:05:24.380Z,99286.31
2018-08-18T18:07:56.978Z,99289.58
2018-08-18T18:10:28.716Z,99292.55
2018-08-18T18:12:58.179Z,99295.98
2018-08-18T18:15:35.541Z,99301.64
2018-08-18T18:18:05.604Z,99298.69
2018-08-18T18:20:35.275Z,99306.20
2018-08-18T18:23:05.457Z,99305.57
2018-08-18T18:25:39.716Z,99314.22
2018-08-18T18:28:09.525Z,99318.61
2018-08-18T18:30:39.228Z,99318.61
2018-08-18T18:33:12.327Z,99315.79
2018-08-18T18:35:43.408Z,99329.84
2018-08-18T18:38:13.787Z,99321.23
2018-08-18T18:40:44.639Z,99328.00
2018-08-18T18:43:14.844Z,99307.44
2018-08-18T18:45:44.473Z,99332.17
2018-08-18T18:48:16.512Z,99332.41
2018-08-18T18:50:49.238Z,99344.38
2018-08-18T18:53:18.674Z,99344.13
2018-08-18T18:55:54.381Z,99349.91
2018-08-18T18:58:23.920Z,99346.25
2018-08-18T19:00:58.966Z,99347.48
2018-08-18T19:03:28.446Z,99350.02
2018-08-18T19:05:57.925Z,99351.91
2018-08-18T19:08:27.425Z,99358.84
2018-08-18T19:10:57.429Z,99364.21
2018-08-18T19:13:27.404Z,99360.47
2018-08-18T19:15:56.875Z,99361.48
2018-08-18T19:18:26.389Z,99364.48
2018-08-18T19:20:56.095Z,99362.78
2018-08-18T19:23:25.526Z,99364.30
2018-08-18T19:25:54.936Z,99364.47
2018-08-18T19:28:24.974Z,99373.41
2018-08-18T19:30:55.194Z,99374.59
2018-08-18T19:33:24.596Z,99378.92
2018-08-18T19:35:54.704Z,99372.66
2018-08-18T19:38:25.356Z,99383.06
2018-08-18T19:40:55.961Z,99380.35
2018-08-18T19:43:26.625Z,99383.34
2018-08-18T19:45:56.788Z,99385.16
2018-08-18T19:48:27.533Z,99390.16
2018-08-18T19:51:05.565Z,99390.32
2018-08-18T19:53:38.061Z,99385.42
2018-08-18T19:56:10.664Z,99381.98
2018-08-18T19:58:40.337Z,99378.92
2018-08-18T20:01:09.780Z,99383.64
2018-08-18T20:03:40.056Z,99385.30
2018-08-18T20:06:13.591Z,99387.47
2018-08-18T20:08:43.056Z,99386.58
2018-08-18T20:11:12.675Z,99389.57
2018-08-18T20:13:42.724Z,99387.66
2018-08-18T20:16:14.137Z,99390.47
2018-08-18T20:18:45.892Z,99390.77
2018-08-18T20:21:17.011Z,99388.97
2018-08-18T20:23:46.448Z,99396.31
2018-08-18T20:26:15.896Z,99397.48
2018-08-18T20:28:46.422Z,99394.44
2018-08-18T20:31:17.841Z,99401.70
2018-08-18T20:33:48.965Z,99399.19
2018-08-18T20:36:20.026Z,99404.83
2018-08-18T20:38:49.685Z,99403.30
2018-08-18T20:41:19.083Z,99399.70
2018-08-18T20:43:50.354Z,99406.86
2018-08-18T20:46:21.783Z,99415.84
2018-08-18T20:48:51.237Z,99412.28
2018-08-18T20:51:26.933Z,99408.91
2018-08-18T20:54:01.710Z,99408.35
2018-08-18T20:56:32.033Z,99414.90
2018-08-18T20:59:03.742Z,99274.52
2018-08-18T21:01:32.992Z,99410.72
2018-08-18T21:04:03.055Z,99415.11
2018-08-18T21:06:33.577Z,99413.80
2018-08-18T21:09:15.722Z,99414.99
2018-08-18T21:11:50.821Z,99418.89
2018-08-18T21:14:20.663Z,99417.73
2018-08-18T21:16:50.105Z,99420.12
2018-08-18T21:19:23.565Z,99419.77
2018-08-18T21:21:54.082Z,99427.96
2018-08-18T21:24:24.576Z,99429.78
2018-08-18T21:26:55.435Z,99435.70
2018-08-18T21:29:24.974Z,99433.33
2018-08-18T21:31:54.986Z,99427.30
2018-08-18T21:34:24.401Z,99428.59
2018-08-18T21:36:53.845Z,99426.61
2018-08-18T21:42:06.122Z,99429.11
2018-08-18T21:44:37.774Z,99428.22
2018-08-18T21:47:11.018Z,99430.97
2018-08-18T21:49:44.096Z,99438.11
2018-08-18T21:52:16.007Z,99436.11
2018-08-18T21:54:46.585Z,99437.03
2018-08-18T21:57:16.202Z,99437.89
2018-08-18T21:59:56.932Z,99441.16
2018-08-18T22:02:38.556Z,99443.98
2018-08-18T22:05:14.979Z,99451.56
2018-08-18T22:07:50.643Z,99446.72
2018-08-18T22:10:21.567Z,99448.91
2018-08-18T22:12:51.072Z,99455.62
2018-08-18T22:15:21.889Z,99456.56
2018-08-18T22:17:53.162Z,99450.67
2018-08-18T22:20:24.023Z,99443.91
2018-08-18T22:22:53.711Z,99452.16
2018-08-18T22:25:25.017Z,99448.06
2018-08-18T22:27:55.097Z,99443.42
2018-08-18T22:30:27.677Z,99451.20
2018-08-18T22:32:58.454Z,99448.80
2018-08-18T22:35:28.794Z,99441.36
2018-08-18T22:38:05.663Z,99435.73
2018-08-18T22:40:38.706Z,99442.28
2018-08-18T22:43:08.135Z,99442.33
2018-08-18T22:45:37.593Z,99443.14
2018-08-18T22:48:08.446Z,99435.23
2018-08-18T22:50:37.880Z,99439.78
2018-08-18T22:53:08.597Z,99442.02
2018-08-18T22:55:38.020Z,99441.12
2018-08-18T22:58:08.455Z,99442.95
2018-08-18T23:00:41.889Z,99442.79
2018-08-18T23:03:15.700Z,99440.19
2018-08-18T23:05:45.400Z,99439.67
2018-08-18T23:08:15.637Z,99446.39
2018-08-18T23:10:52.407Z,99444.42
2018-08-18T23:13:23.325Z,99450.05
2018-08-18T23:15:55.838Z,99453.11
2018-08-18T23:18:25.274Z,99461.13
2018-08-18T23:20:55.019Z,99454.63
2018-08-18T23:23:24.763Z,99449.01
2018-08-18T23:25:55.071Z,99452.04
2018-08-18T23:28:25.317Z,99450.00
2018-08-18T23:30:55.776Z,99452.58
2018-08-18T23:33:27.060Z,99449.94
2018-08-18T23:35:56.774Z,98959.58
2018-08-18T23:38:27.726Z,99444.27
2018-08-18T23:41:01.556Z,99450.71
2018-08-18T23:43:31.089Z,99440.33
2018-08-18T23:46:00.703Z,99436.98
2018-08-18T23:48:31.230Z,99439.63
2018-08-18T23:51:00.756Z,99441.86
2018-08-18T23:53:30.301Z,99440.10
2018-08-18T23:56:00.458Z,99441.62
2018-08-18T23:58:31.432Z,99442.61
